createdAt,value
2018-03-22T00:01:49.745Z,6.65
2018-03-22T00:04:17.173Z,5.85
2018-03-22T00:06:44.594Z,6.85
2018-03-22T00:09:12.034Z,6.40
2018-03-22T00:11:39.454Z,6.10
2018-03-22T00:14:06.890Z,6.50
2018-03-22T00:16:34.319Z,6.25
2018-03-22T00:19:01.761Z,5.93
2018-03-22T00:21:29.190Z,7.00
2018-03-22T00:23:56.609Z,5.07
2018-03-22T00:26:24.046Z,5.62
2018-03-22T00:28:52.234Z,5.30
2018-03-22T00:31:26.541Z,5.35
2018-03-22T00:33:54.735Z,5.30
2018-03-22T00:36:22.159Z,4.60
2018-03-22T00:38:49.576Z,4.95
2018-03-22T00:41:17.009Z,5.30
2018-03-22T00:43:44.432Z,5.25
2018-03-22T00:46:11.860Z,4.95
2018-03-22T00:48:39.283Z,5.82
2018-03-22T00:51:06.725Z,7.10
2018-03-22T00:53:34.252Z,6.87
2018-03-22T00:56:01.574Z,7.35
2018-03-22T00:58:29.003Z,7.78
2018-03-22T01:00:56.433Z,8.10
2018-03-22T01:03:23.870Z,6.43
2018-03-22T01:05:51.293Z,6.12
2018-03-22T01:08:18.721Z,5.32
2018-03-22T01:10:46.155Z,5.90
2018-03-22T01:13:13.581Z,4.55
2018-03-22T01:15:41.006Z,4.90
2018-03-22T01:18:08.433Z,5.22
2018-03-22T01:20:35.857Z,5.00
2018-03-22T01:23:03.285Z,4.90
2018-03-22T01:25:30.706Z,4.80
2018-03-22T01:27:58.132Z,4.72
2018-03-22T01:30:35.309Z,4.78
2018-03-22T01:33:02.744Z,5.15
2018-03-22T01:35:30.171Z,5.30
2018-03-22T01:37:57.597Z,5.50
2018-03-22T01:40:25.017Z,5.00
2018-03-22T01:42:52.444Z,4.72
2018-03-22T01:45:19.878Z,5.70
2018-03-22T01:47:47.300Z,6.15
2018-03-22T01:50:14.728Z,4.37
2018-03-22T01:52:54.029Z,4.72
2018-03-22T01:55:21.425Z,5.95
2018-03-22T01:57:48.846Z,5.57
2018-03-22T02:00:16.281Z,5.60
2018-03-22T02:02:44.461Z,6.00
2018-03-22T02:05:11.889Z,6.45
2018-03-22T02:07:39.309Z,6.18
2018-03-22T02:10:06.772Z,4.95
2018-03-22T02:12:34.165Z,5.10
2018-03-22T02:15:01.621Z,5.18
2018-03-22T02:17:29.818Z,5.70
2018-03-22T02:19:57.245Z,6.50
2018-03-22T02:22:24.665Z,5.15
2018-03-22T02:24:52.094Z,5.60
2018-03-22T02:27:19.515Z,5.30
2018-03-22T02:29:46.949Z,6.03
2018-03-22T02:32:14.377Z,5.10
2018-03-22T02:34:41.804Z,5.60
2018-03-22T02:37:09.233Z,6.68
2018-03-22T02:39:36.654Z,5.70
2018-03-22T02:42:04.092Z,4.95
2018-03-22T02:44:31.529Z,5.20
2018-03-22T02:46:58.958Z,5.37
2018-03-22T02:49:26.375Z,5.12
2018-03-22T02:51:53.813Z,5.47
2018-03-22T02:54:21.225Z,5.70
2018-03-22T02:56:49.439Z,5.65
2018-03-22T02:59:16.865Z,4.72
2018-03-22T03:01:44.302Z,4.40
2018-03-22T03:04:11.986Z,4.60
2018-03-22T03:06:39.512Z,4.57
2018-03-22T03:09:06.929Z,5.10
2018-03-22T03:11:34.361Z,4.53
2018-03-22T03:14:01.786Z,4.62
2018-03-22T03:16:29.224Z,4.28
2018-03-22T03:18:56.653Z,4.90
2018-03-22T03:21:24.087Z,5.07
2018-03-22T03:23:51.511Z,4.85
2018-03-22T03:26:18.943Z,4.18
2018-03-22T03:28:46.362Z,4.32
2018-03-22T03:31:13.793Z,4.50
2018-03-22T03:33:41.220Z,4.10
2018-03-22T03:36:08.649Z,4.03
2018-03-22T03:38:36.069Z,4.05
2018-03-22T03:41:03.515Z,4.03
2018-03-22T03:43:31.701Z,4.07
2018-03-22T03:45:59.128Z,4.43
2018-03-22T03:48:27.324Z,4.37
2018-03-22T03:50:54.750Z,5.18
2018-03-22T03:53:22.187Z,4.95
2018-03-22T03:55:49.611Z,4.22
2018-03-22T05:20:14.142Z,6.20
2018-03-22T05:22:41.577Z,4.55
2018-03-22T05:25:09.013Z,5.95
2018-03-22T05:27:36.443Z,5.40
2018-03-22T05:30:04.671Z,6.47
2018-03-22T05:32:32.064Z,5.00
2018-03-22T05:34:59.492Z,5.60
2018-03-22T05:37:26.933Z,4.90
2018-03-22T05:39:54.366Z,5.43
2018-03-22T05:42:21.794Z,4.25
2018-03-22T05:44:49.979Z,6.87
2018-03-22T05:47:17.402Z,6.22
2018-03-22T05:49:44.865Z,5.60
2018-03-22T05:52:12.289Z,5.20
2018-03-22T05:54:40.532Z,5.22
2018-03-22T05:57:07.952Z,5.65
2018-03-22T05:59:35.380Z,4.35
2018-03-22T06:02:02.811Z,4.00
2018-03-22T06:04:30.241Z,3.92
2018-03-22T06:06:57.664Z,4.75
2018-03-22T06:09:25.107Z,5.35
2018-03-22T06:11:52.535Z,4.60
2018-03-22T06:14:19.966Z,5.10
2018-03-22T06:16:47.416Z,4.72
2018-03-22T06:19:15.619Z,4.47
2018-03-22T06:21:43.041Z,4.85
2018-03-22T06:24:11.233Z,4.40
2018-03-22T06:26:38.653Z,4.32
2018-03-22T06:29:06.081Z,5.03
2018-03-22T06:31:33.514Z,4.80
2018-03-22T06:34:00.928Z,4.45
2018-03-22T06:36:28.355Z,5.10
2018-03-22T06:38:55.785Z,6.05
2018-03-22T06:41:23.221Z,4.90
2018-03-22T06:43:50.636Z,5.32
2018-03-22T06:46:18.073Z,4.75
2018-03-22T06:48:45.501Z,4.75
2018-03-22T06:51:12.935Z,4.87
2018-03-22T06:53:40.357Z,5.00
2018-03-22T06:56:07.801Z,5.10
2018-03-22T06:58:35.234Z,5.62
2018-03-22T07:01:02.671Z,5.40
2018-03-22T07:03:30.093Z,6.25
2018-03-22T07:05:57.517Z,5.00
2018-03-22T07:08:24.949Z,5.68
2018-03-22T07:10:52.377Z,5.40
2018-03-22T07:13:19.805Z,6.60
2018-03-22T07:15:47.225Z,6.03
2018-03-22T07:18:14.662Z,5.62
2018-03-22T07:20:42.084Z,5.72
2018-03-22T07:23:09.517Z,6.30
2018-03-22T07:25:36.936Z,6.55
2018-03-22T07:28:04.373Z,6.03
2018-03-22T07:30:31.800Z,5.45
2018-03-22T07:32:59.226Z,6.93
2018-03-22T07:35:26.659Z,6.37
2018-03-22T07:37:54.101Z,5.95
2018-03-22T07:40:21.518Z,6.85
2018-03-22T07:42:54.720Z,6.25
2018-03-22T07:45:22.136Z,6.35
2018-03-22T07:47:49.568Z,6.85
2018-03-22T07:50:17.223Z,7.00
2018-03-22T07:52:44.631Z,7.40
2018-03-22T07:55:12.058Z,6.90
2018-03-22T07:57:39.493Z,6.90
2018-03-22T08:00:06.944Z,7.82
2018-03-22T08:02:34.362Z,7.12
2018-03-22T08:05:01.810Z,7.53
2018-03-22T08:07:29.233Z,7.65
2018-03-22T08:09:56.929Z,7.47
2018-03-22T08:12:24.325Z,7.93
2018-03-22T08:14:52.485Z,7.25
2018-03-22T08:17:19.904Z,7.45
2018-03-22T08:19:47.341Z,7.60
2018-03-22T08:22:14.774Z,7.53
2018-03-22T08:24:42.206Z,8.90
2018-03-22T08:27:09.645Z,12.85
2018-03-22T08:29:37.885Z,12.27
2018-03-22T08:32:05.322Z,12.27
2018-03-22T08:34:32.749Z,12.40
2018-03-22T08:37:00.193Z,12.13
2018-03-22T08:39:27.644Z,12.43
2018-03-22T08:41:55.101Z,12.30
2018-03-22T08:44:22.550Z,13.20
2018-03-22T08:46:50.002Z,11.85
2018-03-22T08:49:17.465Z,12.27
2018-03-22T08:51:44.934Z,11.27
2018-03-22T08:54:12.366Z,12.00
2018-03-22T08:56:40.577Z,12.00
2018-03-22T08:59:08.009Z,11.52
2018-03-22T09:01:36.221Z,11.27
2018-03-22T09:04:03.651Z,12.43
2018-03-22T09:06:31.084Z,12.30
2018-03-22T09:08:59.318Z,12.27
2018-03-22T09:11:26.748Z,12.27
2018-03-22T09:13:55.087Z,16.67
2018-03-22T09:16:22.529Z,13.02
2018-03-22T09:18:49.964Z,11.55
2018-03-22T09:21:17.392Z,10.48
2018-03-22T09:23:44.843Z,10.57
2018-03-22T09:26:12.268Z,11.23
2018-03-22T09:28:40.469Z,11.70
2018-03-22T09:31:07.897Z,11.00
2018-03-22T09:33:36.101Z,12.45
2018-03-22T09:36:03.524Z,10.50
2018-03-22T09:38:31.738Z,11.12
2018-03-22T09:40:59.157Z,11.35
2018-03-22T09:43:27.357Z,12.05
2018-03-22T09:45:54.783Z,11.05
2018-03-22T09:48:22.217Z,11.05
2018-03-22T09:50:49.650Z,12.55
2018-03-22T09:53:17.101Z,11.12
2018-03-22T09:55:44.521Z,11.40
2018-03-22T09:58:12.730Z,11.12
2018-03-22T10:00:40.162Z,11.40
2018-03-22T10:03:07.655Z,13.02
2018-03-22T10:05:35.090Z,10.85
2018-03-22T10:08:02.533Z,11.20
2018-03-22T10:10:29.998Z,13.40
2018-03-22T10:12:57.420Z,12.13
2018-03-22T10:15:24.866Z,11.85
2018-03-22T10:17:52.289Z,12.17
2018-03-22T10:20:19.734Z,12.80
2018-03-22T10:22:47.156Z,9.80
2018-03-22T10:25:15.365Z,10.80
2018-03-22T10:27:42.790Z,10.73
2018-03-22T10:30:10.217Z,10.68
2018-03-22T10:32:37.648Z,10.30
2018-03-22T10:35:05.097Z,11.60
2018-03-22T10:37:32.524Z,11.20
2018-03-22T10:39:59.960Z,9.60
2018-03-22T10:42:28.153Z,10.82
2018-03-22T10:44:55.608Z,11.75
2018-03-22T10:47:23.034Z,10.10
2018-03-22T10:49:51.222Z,10.68
2018-03-22T10:52:18.668Z,10.95
2018-03-22T10:54:46.095Z,10.05
2018-03-22T10:57:13.538Z,10.60
2018-03-22T10:59:40.972Z,9.75
2018-03-22T11:02:14.135Z,9.82
2018-03-22T11:04:42.339Z,9.80
2018-03-22T11:07:09.776Z,9.18
2018-03-22T11:09:37.200Z,12.10
2018-03-22T11:12:05.406Z,11.02
2018-03-22T11:14:32.828Z,12.90
2018-03-22T11:17:00.270Z,13.25
2018-03-22T11:19:27.702Z,13.38
2018-03-22T11:21:55.182Z,13.43
2018-03-22T11:24:22.568Z,12.07
2018-03-22T11:26:50.009Z,12.93
2018-03-22T11:29:18.197Z,12.40
2018-03-22T11:31:45.641Z,12.77
2018-03-22T11:34:13.834Z,13.57
2018-03-22T11:36:41.261Z,12.75
2018-03-22T11:39:08.701Z,12.73
2018-03-22T11:41:36.130Z,13.52
2018-03-22T11:44:03.569Z,12.88
2018-03-22T11:46:30.996Z,13.88
2018-03-22T11:48:58.442Z,13.60
2018-03-22T11:51:25.884Z,12.40
2018-03-22T11:53:53.376Z,13.98
2018-03-22T11:56:20.745Z,14.80
2018-03-22T11:58:48.185Z,14.63
2018-03-22T12:01:15.671Z,15.68
2018-03-22T12:03:43.101Z,13.60
2018-03-22T12:06:10.533Z,14.45
2018-03-22T12:08:38.750Z,12.85
2018-03-22T12:11:06.232Z,13.85
2018-03-22T12:13:33.624Z,13.10
2018-03-22T12:16:01.060Z,12.70
2018-03-22T12:18:28.492Z,12.95
2018-03-22T12:20:55.931Z,12.20
2018-03-22T12:23:23.361Z,13.98
2018-03-22T12:25:50.805Z,12.55
2018-03-22T12:28:18.997Z,14.80
2018-03-22T12:30:46.430Z,12.98
2018-03-22T12:33:13.893Z,12.00
2018-03-22T12:35:42.101Z,13.02
2018-03-22T12:38:09.550Z,12.10
2018-03-22T12:40:36.985Z,12.52
2018-03-22T12:43:05.128Z,11.20
2018-03-22T12:45:32.561Z,10.15
2018-03-22T12:47:59.985Z,10.85
2018-03-22T12:50:27.718Z,9.27
2018-03-22T12:52:55.344Z,10.70
2018-03-22T12:55:22.937Z,10.18
2018-03-22T12:57:50.382Z,10.07
2018-03-22T13:00:18.038Z,10.90
2018-03-22T13:02:45.505Z,11.12
2018-03-22T13:05:13.044Z,10.60
2018-03-22T13:07:40.469Z,10.07
2018-03-22T13:10:08.764Z,8.93
2018-03-22T13:12:36.816Z,10.20
2018-03-22T13:15:05.022Z,10.05
2018-03-22T13:17:32.469Z,10.52
2018-03-22T13:19:59.952Z,10.30
2018-03-22T13:22:27.582Z,9.77
2018-03-22T13:24:55.065Z,10.15
2018-03-22T13:27:22.496Z,10.63
2018-03-22T13:29:49.948Z,10.32
2018-03-22T13:32:18.328Z,10.68
2018-03-22T13:34:45.919Z,12.13
2018-03-22T13:37:13.348Z,11.12
2018-03-22T13:39:40.776Z,11.10
2018-03-22T13:42:08.278Z,11.25
2018-03-22T13:44:35.704Z,11.55
2018-03-22T13:47:03.128Z,9.75
2018-03-22T13:49:30.581Z,10.35
2018-03-22T13:51:58.307Z,10.65
2018-03-22T13:54:25.780Z,8.50
2018-03-22T13:56:53.204Z,9.18
2018-03-22T13:59:21.584Z,9.02
2018-03-22T14:01:50.987Z,9.85
2018-03-22T14:04:18.457Z,12.00
2018-03-22T14:06:45.880Z,9.90
2018-03-22T14:09:22.032Z,11.30
2018-03-22T14:11:50.356Z,10.63
2018-03-22T14:14:17.820Z,8.13
2018-03-22T14:16:45.219Z,8.82
2018-03-22T14:19:12.718Z,8.27
2018-03-22T14:21:40.140Z,8.15
2018-03-22T14:24:07.637Z,9.60
2018-03-22T14:26:35.067Z,9.77
2018-03-22T14:29:02.497Z,7.93
2018-03-22T14:31:30.004Z,8.77
2018-03-22T14:33:57.460Z,9.48
2018-03-22T14:36:24.918Z,9.20
2018-03-22T14:38:52.335Z,8.00
2018-03-22T14:41:19.766Z,8.75
2018-03-22T14:43:47.276Z,7.97
2018-03-22T14:46:14.724Z,8.70
2018-03-22T14:48:42.196Z,8.15
2018-03-22T14:51:09.624Z,8.60
2018-03-22T14:53:37.048Z,8.35
2018-03-22T14:56:04.476Z,8.98
2018-03-22T14:58:32.028Z,7.82
2018-03-22T15:00:59.456Z,9.25
2018-03-22T15:03:26.884Z,9.77
2018-03-22T15:05:54.338Z,9.90
2018-03-22T15:08:22.537Z,9.35
2018-03-22T15:10:50.135Z,9.00
2018-03-22T15:13:17.678Z,11.12
2018-03-22T15:15:45.109Z,11.10
2018-03-22T15:18:12.537Z,11.18
2018-03-22T15:20:40.049Z,10.02
2018-03-22T15:23:07.482Z,10.35
2018-03-22T15:25:34.901Z,9.30
2018-03-22T15:28:02.342Z,10.15
2018-03-22T15:30:29.881Z,11.15
2018-03-22T15:32:57.432Z,9.40
2018-03-22T15:35:24.959Z,11.48
2018-03-22T15:37:52.472Z,14.87
2018-03-22T15:40:20.205Z,11.32
2018-03-22T15:42:47.623Z,11.48
2018-03-22T15:45:15.820Z,11.55
2018-03-22T15:47:43.304Z,11.70
2018-03-22T15:50:10.672Z,8.85
2018-03-22T15:52:38.205Z,11.52
2018-03-22T15:55:05.628Z,12.37
2018-03-22T15:57:33.062Z,9.40
2018-03-22T16:00:00.576Z,10.40
2018-03-22T16:02:28.024Z,9.82
2018-03-22T16:04:55.449Z,9.52
2018-03-22T16:07:22.888Z,8.25
2018-03-22T16:09:50.308Z,6.97
2018-03-22T16:12:17.750Z,8.18
2018-03-22T16:14:45.226Z,8.13
2018-03-22T16:17:12.615Z,7.70
2018-03-22T16:19:40.817Z,6.70
2018-03-22T16:22:08.305Z,7.47
2018-03-22T16:24:35.928Z,7.15
2018-03-22T16:27:03.520Z,7.72
2018-03-22T16:29:30.944Z,6.82
2018-03-22T16:31:58.372Z,5.57
2018-03-22T16:34:25.803Z,6.30
2018-03-22T16:36:53.380Z,6.50
2018-03-22T16:39:20.792Z,6.85
2018-03-22T16:41:48.252Z,7.40
2018-03-22T16:44:15.692Z,6.82
2018-03-22T16:46:43.164Z,5.95
2018-03-22T16:49:10.632Z,7.45
2018-03-22T16:51:38.388Z,7.10
2018-03-22T16:54:05.844Z,6.90
2018-03-22T16:56:33.295Z,6.87
2018-03-22T16:59:00.800Z,8.45
2018-03-22T17:01:28.516Z,10.30
2018-03-22T17:03:55.976Z,13.18
2018-03-22T17:06:23.409Z,5.85
2018-03-22T17:08:50.830Z,8.48
2018-03-22T17:11:18.252Z,8.93
2018-03-22T17:13:45.696Z,8.70
2018-03-22T17:16:13.137Z,7.87
2018-03-22T17:18:40.572Z,6.60
2018-03-22T17:21:09.964Z,7.53
2018-03-22T17:23:37.384Z,9.63
2018-03-22T17:26:04.831Z,15.50
2018-03-22T17:28:33.169Z,9.55
2018-03-22T17:31:00.756Z,8.95
2018-03-22T17:33:28.215Z,6.35
2018-03-22T17:35:55.697Z,5.15
2018-03-22T17:38:23.240Z,5.40
2018-03-22T17:40:50.680Z,6.30
2018-03-22T17:43:18.349Z,4.80
2018-03-22T17:45:45.804Z,8.90
2018-03-22T17:48:13.271Z,6.70
2018-03-22T17:50:40.716Z,5.45
2018-03-22T17:53:08.273Z,6.28
2018-03-22T17:55:35.713Z,5.68
2018-03-22T17:58:03.397Z,6.18
2018-03-22T18:00:30.868Z,6.90
2018-03-22T18:02:58.300Z,5.32
2018-03-22T18:05:25.722Z,5.50
2018-03-22T18:07:53.216Z,5.97
2018-03-22T18:10:20.669Z,5.90
2018-03-22T18:12:48.159Z,6.65
2018-03-22T18:15:15.583Z,6.72
2018-03-22T18:17:42.996Z,6.90
2018-03-22T18:20:10.496Z,7.20
2018-03-22T18:22:37.912Z,6.35
2018-03-22T18:25:05.344Z,5.90
2018-03-22T18:27:32.770Z,6.07
2018-03-22T18:30:00.324Z,5.75
2018-03-22T18:32:27.752Z,15.20
2018-03-22T18:34:55.236Z,8.23
2018-03-22T18:37:22.665Z,13.00
2018-03-22T18:39:50.096Z,7.22
2018-03-22T18:42:17.521Z,7.55
2018-03-22T18:44:45.068Z,5.90
2018-03-22T18:47:12.480Z,6.72
2018-03-22T18:49:39.928Z,7.15
2018-03-22T18:52:07.428Z,7.90
2018-03-22T18:54:34.880Z,7.90
2018-03-22T18:57:02.292Z,7.68
2018-03-22T18:59:29.728Z,7.65
2018-03-22T19:01:57.157Z,8.93
2018-03-22T19:04:24.587Z,9.27
2018-03-22T19:06:52.013Z,8.30
2018-03-22T19:09:20.200Z,9.48
2018-03-22T19:11:47.697Z,10.32
2018-03-22T19:14:15.116Z,8.93
2018-03-22T19:16:42.549Z,9.07
2018-03-22T19:19:09.972Z,8.88
2018-03-22T19:21:37.617Z,7.90
2018-03-22T19:24:04.972Z,8.52
2018-03-22T19:26:32.429Z,9.13
2018-03-22T19:28:59.884Z,10.60
2018-03-22T19:31:27.319Z,13.35
2018-03-22T19:33:54.752Z,15.77
2018-03-22T19:36:22.180Z,15.63
2018-03-22T19:38:50.636Z,14.30
2018-03-22T19:41:18.066Z,9.57
2018-03-22T19:43:45.500Z,10.88
2018-03-22T19:46:12.922Z,9.75
2018-03-22T19:48:40.456Z,10.20
2018-03-22T19:51:08.092Z,15.05
2018-03-22T19:53:35.672Z,11.65
2018-03-22T19:56:03.143Z,11.40
2018-03-22T19:58:30.596Z,11.40
2018-03-22T20:00:58.360Z,13.00
2018-03-22T20:03:25.792Z,11.82
2018-03-22T20:05:53.275Z,12.30
2018-03-22T20:08:20.929Z,10.90
2018-03-22T20:10:48.361Z,9.88
2018-03-22T20:13:15.842Z,11.57
2018-03-22T20:15:43.300Z,11.20
2018-03-22T20:18:10.852Z,11.82
2018-03-22T20:20:38.308Z,12.48
2018-03-22T20:23:05.732Z,13.30
2018-03-22T20:25:33.171Z,11.40
2018-03-22T20:28:00.675Z,12.20
2018-03-22T20:30:28.113Z,11.77
2018-03-22T20:32:55.540Z,11.70
2018-03-22T20:35:23.056Z,12.55
2018-03-22T20:37:50.576Z,13.32
2018-03-22T20:40:18.013Z,15.50
2018-03-22T20:42:45.724Z,14.20
2018-03-22T20:45:13.176Z,15.23
2018-03-22T20:47:40.640Z,13.40
2018-03-22T20:50:08.288Z,14.40
2018-03-22T20:52:35.716Z,13.98
2018-03-22T20:55:03.144Z,14.30
2018-03-22T20:57:30.692Z,13.77
2018-03-22T20:59:58.174Z,12.98
2018-03-22T21:02:25.604Z,11.88
2018-03-22T21:04:53.041Z,14.10
2018-03-22T21:07:20.602Z,13.75
2018-03-22T21:09:48.024Z,13.45
2018-03-22T21:12:15.464Z,13.75
2018-03-22T21:14:43.751Z,13.27
2018-03-22T21:17:11.344Z,12.57
2018-03-22T21:19:38.791Z,13.15
2018-03-22T21:22:06.245Z,11.50
2018-03-22T21:24:33.712Z,12.20
2018-03-22T21:27:01.155Z,12.13
2018-03-22T21:29:28.586Z,12.00
2018-03-22T21:31:56.009Z,12.37
2018-03-22T21:34:23.452Z,12.10
2018-03-22T21:36:50.984Z,12.50
2018-03-22T21:39:18.432Z,12.90
2018-03-22T21:41:57.777Z,13.05
2018-03-22T21:44:25.258Z,12.85
2018-03-22T21:46:52.797Z,12.73
2018-03-22T21:49:20.318Z,15.27
2018-03-22T21:51:59.749Z,14.48
2018-03-22T21:54:27.357Z,13.80
2018-03-22T21:56:54.847Z,13.93
2018-03-22T21:59:22.283Z,13.60
2018-03-22T22:01:49.737Z,13.48
2018-03-22T22:04:17.176Z,13.77
2018-03-22T22:06:44.638Z,12.75
2018-03-22T22:09:12.188Z,12.63
2018-03-22T22:11:39.624Z,14.07
2018-03-22T22:14:07.061Z,12.25
2018-03-22T22:16:34.476Z,14.48
2018-03-22T22:19:01.932Z,13.73
2018-03-22T22:21:29.368Z,14.25
2018-03-22T22:23:56.814Z,12.73
2018-03-22T22:26:24.284Z,13.25
2018-03-22T22:28:51.759Z,12.88
2018-03-22T22:31:19.272Z,12.57
2018-03-22T22:33:46.703Z,12.90
2018-03-22T22:36:14.140Z,12.13
2018-03-22T22:38:41.569Z,13.57
2018-03-22T22:41:09.023Z,13.27
2018-03-22T22:43:36.471Z,13.10
2018-03-22T22:46:04.004Z,12.00
2018-03-22T22:48:31.478Z,12.45
2018-03-22T22:50:58.916Z,13.27
2018-03-22T22:53:26.432Z,15.32
2018-03-22T22:55:53.897Z,13.98
2018-03-22T22:58:21.332Z,14.43
2018-03-22T23:00:48.773Z,14.95
2018-03-22T23:03:16.477Z,15.68
2018-03-22T23:05:43.988Z,13.90
2018-03-22T23:08:11.444Z,16.02
2018-03-22T23:10:38.906Z,15.95
2018-03-22T23:13:06.360Z,14.40
2018-03-22T23:15:33.992Z,15.82
2018-03-22T23:18:01.445Z,15.57
2018-03-22T23:20:29.028Z,13.62
2018-03-22T23:22:56.452Z,15.77
2018-03-22T23:25:23.887Z,15.25
2018-03-22T23:27:51.312Z,15.45
2018-03-22T23:30:18.736Z,14.13
2018-03-22T23:32:46.317Z,14.68
2018-03-22T23:35:13.852Z,16.30
2018-03-22T23:37:41.400Z,15.60
2018-03-22T23:40:08.891Z,14.60
2018-03-22T23:42:36.445Z,15.95
2018-03-22T23:45:04.077Z,14.70
2018-03-22T23:47:31.660Z,14.93
2018-03-22T23:49:59.091Z,15.10
2018-03-22T23:52:26.532Z,15.32
2018-03-22T23:54:53.951Z,14.18
2018-03-22T23:57:21.389Z,14.95
2018-03-22T23:59:48.808Z,14.23
